In Rescue
 
Open Full Screen Window  High Contrast Mode
Wind Gusting 00 knots
06
November 14, 2019 2:48 PM EST
Weather Information
Wind Direction
  210 °
Wind Speed
  06 kt (7 mph)
Wind Gust
  00 kt (0 mph)
Altimeter
30.21 in
Visibility
10 SM
Temperature
01° C
34° F
Dewpoint
-04° C
25° F
Humidity
70%
Sky Condition
Clear
VFR

METAR KAXV 141948Z AUTO 21006KT 10SM CLR 01/M04 A3021 RMK AO2

FAA Disclaimer: The data displayed is for advisory purposes only and is not to be used for flight planning or operations.